sensor_id;sensor_type;location;lat;lon;timestamp;pressure;altitude;pressure_sealevel;temperature;humidity
13011;BME280;6786;57.632;11.962;2023-04-20T00:02:05;102638.13;;;19.10;36.11
13011;BME280;6786;57.632;11.962;2023-04-20T00:04:35;102635.53;;;19.08;36.09
13011;BME280;6786;57.632;11.962;2023-04-20T00:07:05;102639.00;;;19.10;36.07
13011;BME280;6786;57.632;11.962;2023-04-20T00:09:33;102631.06;;;19.09;36.07
13011;BME280;6786;57.632;11.962;2023-04-20T00:12:02;102636.41;;;19.09;36.10
13011;BME280;6786;57.632;11.962;2023-04-20T00:14:30;102641.78;;;19.09;36.13
13011;BME280;6786;57.632;11.962;2023-04-20T00:16:58;102640.03;;;19.08;36.03
13011;BME280;6786;57.632;11.962;2023-04-20T00:19:27;102641.78;;;19.09;36.18
13011;BME280;6786;57.632;11.962;2023-04-20T00:22:00;102640.03;;;19.08;36.19
13011;BME280;6786;57.632;11.962;2023-04-20T00:24:29;102640.91;;;19.08;36.13
13011;BME280;6786;57.632;11.962;2023-04-20T00:26:57;102633.75;;;19.09;36.11
13011;BME280;6786;57.632;11.962;2023-04-20T00:29:26;102641.78;;;19.09;36.10
13011;BME280;6786;57.632;11.962;2023-04-20T00:31:55;102640.91;;;19.08;36.17
13011;BME280;6786;57.632;11.962;2023-04-20T00:34:23;102629.31;;;19.08;36.10
13011;BME280;6786;57.632;11.962;2023-04-20T00:36:52;102634.66;;;19.08;36.07
13011;BME280;6786;57.632;11.962;2023-04-20T00:39:22;102632.94;;;19.07;36.07
13011;BME280;6786;57.632;11.962;2023-04-20T00:41:51;102623.09;;;19.07;36.13
13011;BME280;6786;57.632;11.962;2023-04-20T00:44:19;102627.59;;;19.07;36.08
13011;BME280;6786;57.632;11.962;2023-04-20T00:46:48;102613.75;;;18.99;35.93
13011;BME280;6786;57.632;11.962;2023-04-20T00:49:19;102626.72;;;19.06;36.11
13011;BME280;6786;57.632;11.962;2023-04-20T00:51:47;102623.09;;;19.07;36.06
13011;BME280;6786;57.632;11.962;2023-04-20T00:54:16;102613.41;;;19.05;36.06
13011;BME280;6786;57.632;11.962;2023-04-20T00:56:47;102607.19;;;19.04;36.24
13011;BME280;6786;57.632;11.962;2023-04-20T00:59:16;102616.00;;;19.06;36.12
13011;BME280;6786;57.632;11.962;2023-04-20T01:01:45;102611.50;;;19.07;36.05
13011;BME280;6786;57.632;11.962;2023-04-20T01:04:14;102614.19;;;19.07;36.14
13011;BME280;6786;57.632;11.962;2023-04-20T01:06:43;102622.22;;;19.07;36.13
13011;BME280;6786;57.632;11.962;2023-04-20T01:09:11;102620.50;;;19.06;36.24
13011;BME280;6786;57.632;11.962;2023-04-20T01:11:41;102621.25;;;19.08;36.14
13011;BME280;6786;57.632;11.962;2023-04-20T01:14:11;102613.41;;;19.05;36.17
13011;BME280;6786;57.632;11.962;2023-04-20T01:16:40;102621.34;;;19.06;36.14
13011;BME280;6786;57.632;11.962;2023-04-20T01:19:08;102620.50;;;19.06;36.33
13011;BME280;6786;57.632;11.962;2023-04-20T01:21:37;102616.00;;;19.06;36.05
13011;BME280;6786;57.632;11.962;2023-04-20T01:24:08;102607.09;;;19.06;36.09
13011;BME280;6786;57.632;11.962;2023-04-20T01:26:36;102614.28;;;19.05;36.11
13011;BME280;6786;57.632;11.962;2023-04-20T01:29:04;102615.16;;;19.06;36.13
13011;BME280;6786;57.632;11.962;2023-04-20T01:31:33;102609.78;;;19.06;36.02
13011;BME280;6786;57.632;11.962;2023-04-20T01:34:01;102609.78;;;19.06;36.03
13011;BME280;6786;57.632;11.962;2023-04-20T01:36:30;102607.09;;;19.06;36.09
13011;BME280;6786;57.632;11.962;2023-04-20T01:38:59;102606.16;;;19.07;36.10
13011;BME280;6786;57.632;11.962;2023-04-20T01:41:29;102601.75;;;19.06;36.06
13011;BME280;6786;57.632;11.962;2023-04-20T01:43:58;102600.00;;;19.05;36.02
13011;BME280;6786;57.632;11.962;2023-04-20T01:46:27;102594.63;;;19.05;36.04
13011;BME280;6786;57.632;11.962;2023-04-20T01:48:56;102604.44;;;19.06;36.14
13011;BME280;6786;57.632;11.962;2023-04-20T01:51:24;102601.75;;;19.06;35.96
13011;BME280;6786;57.632;11.962;2023-04-20T01:53:53;102599.06;;;19.06;36.08
13011;BME280;6786;57.632;11.962;2023-04-20T01:56:22;102597.31;;;19.05;36.04
13011;BME280;6786;57.632;11.962;2023-04-20T01:58:52;102594.63;;;19.05;36.00
13011;BME280;6786;57.632;11.962;2023-04-20T02:01:20;102599.06;;;19.06;36.01
13011;BME280;6786;57.632;11.962;2023-04-20T02:03:49;102591.97;;;19.05;36.11
13011;BME280;6786;57.632;11.962;2023-04-20T02:06:18;102587.56;;;19.04;36.01
13011;BME280;6786;57.632;11.962;2023-04-20T02:08:46;102583.00;;;19.06;35.94
13011;BME280;6786;57.632;11.962;2023-04-20T02:11:15;102585.66;;;19.06;35.99
13011;BME280;6786;57.632;11.962;2023-04-20T02:13:43;102588.34;;;19.06;36.04
13011;BME280;6786;57.632;11.962;2023-04-20T02:16:13;102588.34;;;19.06;36.07
13011;BME280;6786;57.632;11.962;2023-04-20T02:18:41;102590.06;;;19.07;36.03
13011;BME280;6786;57.632;11.962;2023-04-20T02:21:11;102584.69;;;19.07;35.96
13011;BME280;6786;57.632;11.962;2023-04-20T02:23:40;102584.88;;;19.04;35.91
13011;BME280;6786;57.632;11.962;2023-04-20T02:26:08;102574.53;;;18.98;36.25
13011;BME280;6786;57.632;11.962;2023-04-20T02:28:36;102588.34;;;19.06;35.94
13011;BME280;6786;57.632;11.962;2023-04-20T02:31:04;102588.34;;;19.06;35.91
13011;BME280;6786;57.632;11.962;2023-04-20T02:33:35;102576.75;;;19.05;35.99
13011;BME280;6786;57.632;11.962;2023-04-20T02:36:04;102583.91;;;19.05;36.08
13011;BME280;6786;57.632;11.962;2023-04-20T02:38:33;102588.34;;;19.06;35.93
13011;BME280;6786;57.632;11.962;2023-04-20T02:41:01;102582.38;;;19.01;35.85
13011;BME280;6786;57.632;11.962;2023-04-20T02:43:30;102588.34;;;19.06;35.96
13011;BME280;6786;57.632;11.962;2023-04-20T02:46:00;102583.84;;;19.06;35.89
13011;BME280;6786;57.632;11.962;2023-04-20T02:48:28;102579.34;;;19.07;35.99
13011;BME280;6786;57.632;11.962;2023-04-20T02:50:58;102577.63;;;19.06;35.89
13011;BME280;6786;57.632;11.962;2023-04-20T02:53:26;102578.56;;;19.05;35.90
13011;BME280;6786;57.632;11.962;2023-04-20T02:55:55;102575.88;;;19.05;35.91
13011;BME280;6786;57.632;11.962;2023-04-20T02:58:23;102574.16;;;19.04;36.01
13011;BME280;6786;57.632;11.962;2023-04-20T03:00:58;102578.56;;;19.05;35.80
13011;BME280;6786;57.632;11.962;2023-04-20T03:03:27;102583.00;;;19.06;35.86
13011;BME280;6786;57.632;11.962;2023-04-20T03:05:55;102570.69;;;19.02;35.85
13011;BME280;6786;57.632;11.962;2023-04-20T03:08:25;102575.88;;;19.05;35.95
13011;BME280;6786;57.632;11.962;2023-04-20T03:10:53;102575.88;;;19.05;35.91
13011;BME280;6786;57.632;11.962;2023-04-20T03:13:22;102568.81;;;19.04;35.87
13011;BME280;6786;57.632;11.962;2023-04-20T03:15:50;102572.28;;;19.06;35.85
13011;BME280;6786;57.632;11.962;2023-04-20T03:18:19;102571.41;;;19.05;35.84
13011;BME280;6786;57.632;11.962;2023-04-20T03:20:47;102572.28;;;19.06;35.85
13011;BME280;6786;57.632;11.962;2023-04-20T03:23:15;102572.28;;;19.06;35.85
13011;BME280;6786;57.632;11.962;2023-04-20T03:25:45;102572.28;;;19.06;35.89
13011;BME280;6786;57.632;11.962;2023-04-20T03:28:14;102573.97;;;19.07;35.89
13011;BME280;6786;57.632;11.962;2023-04-20T03:30:42;102577.63;;;19.06;35.92
13011;BME280;6786;57.632;11.962;2023-04-20T03:33:10;102575.78;;;19.06;35.85
13011;BME280;6786;57.632;11.962;2023-04-20T03:35:39;102577.63;;;19.06;35.83
13011;BME280;6786;57.632;11.962;2023-04-20T03:38:08;102580.31;;;19.06;35.86
13011;BME280;6786;57.632;11.962;2023-04-20T03:40:37;102575.88;;;19.05;35.75
13011;BME280;6786;57.632;11.962;2023-04-20T03:43:08;102578.56;;;19.05;35.94
13011;BME280;6786;57.632;11.962;2023-04-20T03:45:37;102577.63;;;19.06;35.83
13011;BME280;6786;57.632;11.962;2023-04-20T03:48:06;102577.63;;;19.06;35.84
13011;BME280;6786;57.632;11.962;2023-04-20T03:50:35;102577.63;;;19.06;35.86
13011;BME280;6786;57.632;11.962;2023-04-20T03:53:03;102571.41;;;19.05;35.80
13011;BME280;6786;57.632;11.962;2023-04-20T03:55:32;102568.81;;;19.04;35.81
13011;BME280;6786;57.632;11.962;2023-04-20T03:58:00;102561.53;;;19.06;35.81
13011;BME280;6786;57.632;11.962;2023-04-20T04:00:30;102564.31;;;19.04;35.75
13011;BME280;6786;57.632;11.962;2023-04-20T04:02:59;102563.34;;;19.05;35.75
13011;BME280;6786;57.632;11.962;2023-04-20T04:05:28;102561.53;;;19.06;35.62
13011;BME280;6786;57.632;11.962;2023-04-20T04:07:57;102566.03;;;19.05;35.74
13011;BME280;6786;57.632;11.962;2023-04-20T04:10:25;102555.31;;;19.05;35.76
13011;BME280;6786;57.632;11.962;2023-04-20T04:12:54;102555.31;;;19.05;35.79
13011;BME280;6786;57.632;11.962;2023-04-20T04:15:23;102565.16;;;19.05;35.75
13011;BME280;6786;57.632;11.962;2023-04-20T04:17:55;102568.81;;;19.04;35.63
13011;BME280;6786;57.632;11.962;2023-04-20T04:20:23;102565.16;;;19.05;35.78
13011;BME280;6786;57.632;11.962;2023-04-20T04:22:52;102574.94;;;19.06;35.66
13011;BME280;6786;57.632;11.962;2023-04-20T04:25:20;102571.41;;;19.05;35.74
13011;BME280;6786;57.632;11.962;2023-04-20T04:27:49;102583.00;;;19.06;35.67
13011;BME280;6786;57.632;11.962;2023-04-20T04:30:19;102583.00;;;19.06;35.71
13011;BME280;6786;57.632;11.962;2023-04-20T04:32:47;102579.34;;;19.07;35.72
13011;BME280;6786;57.632;11.962;2023-04-20T04:35:18;102586.25;;;19.11;35.88
13011;BME280;6786;57.632;11.962;2023-04-20T04:37:46;102584.34;;;19.13;35.87
13011;BME280;6786;57.632;11.962;2023-04-20T04:40:15;102582.63;;;19.12;35.77
13011;BME280;6786;57.632;11.962;2023-04-20T04:42:44;102581.75;;;19.11;35.74
13011;BME280;6786;57.632;11.962;2023-04-20T04:45:14;102586.25;;;19.11;35.71
13011;BME280;6786;57.632;11.962;2023-04-20T04:47:44;102588.16;;;19.09;35.69
13011;BME280;6786;57.632;11.962;2023-04-20T04:50:12;102587.28;;;19.08;35.76
13011;BME280;6786;57.632;11.962;2023-04-20T04:52:44;102586.41;;;19.08;35.83
13011;BME280;6786;57.632;11.962;2023-04-20T04:55:12;102585.66;;;19.06;35.65
13011;BME280;6786;57.632;11.962;2023-04-20T04:57:42;102591.78;;;19.08;35.81
13011;BME280;6786;57.632;11.962;2023-04-20T05:00:11;102584.69;;;19.07;35.73
13011;BME280;6786;57.632;11.962;2023-04-20T05:02:42;102584.69;;;19.07;35.74
13011;BME280;6786;57.632;11.962;2023-04-20T05:05:10;102577.44;;;19.09;35.67
13011;BME280;6786;57.632;11.962;2023-04-20T05:07:38;102578.09;;;19.12;35.78
13011;BME280;6786;57.632;11.962;2023-04-20T05:10:09;102568.09;;;19.16;35.79
13011;BME280;6786;57.632;11.962;2023-04-20T05:12:40;102574.09;;;19.19;35.89
13011;BME280;6786;57.632;11.962;2023-04-20T05:15:10;102580.34;;;19.20;35.89
13011;BME280;6786;57.632;11.962;2023-04-20T05:17:38;102578.44;;;19.22;35.82
13011;BME280;6786;57.632;11.962;2023-04-20T05:20:08;102574.78;;;19.23;35.87
13011;BME280;6786;57.632;11.962;2023-04-20T05:22:38;102572.03;;;19.24;35.99
13011;BME280;6786;57.632;11.962;2023-04-20T05:25:07;102576.41;;;19.25;35.85
13011;BME280;6786;57.632;11.962;2023-04-20T05:27:39;102579.97;;;19.26;35.89
13011;BME280;6786;57.632;11.962;2023-04-20T05:30:09;102572.75;;;19.28;35.86
13011;BME280;6786;57.632;11.962;2023-04-20T05:32:47;102571.00;;;19.27;35.91
13011;BME280;6786;57.632;11.962;2023-04-20T05:35:18;102572.75;;;19.28;35.89
13011;BME280;6786;57.632;11.962;2023-04-20T05:37:47;102573.75;;;19.25;35.82
13011;BME280;6786;57.632;11.962;2023-04-20T05:40:15;102578.75;;;19.31;35.97
13011;BME280;6786;57.632;11.962;2023-04-20T05:42:46;102574.28;;;19.32;35.89
13011;BME280;6786;57.632;11.962;2023-04-20T05:45:14;102573.41;;;19.31;35.91
13011;BME280;6786;57.632;11.962;2023-04-20T05:47:51;102570.81;;;19.30;35.71
13011;BME280;6786;57.632;11.962;2023-04-20T05:50:20;102576.00;;;19.33;35.90
13011;BME280;6786;57.632;11.962;2023-04-20T05:52:49;102586.72;;;19.33;35.89
13011;BME280;6786;57.632;11.962;2023-04-20T05:55:17;102581.34;;;19.33;35.93
13011;BME280;6786;57.632;11.962;2023-04-20T05:57:50;102585.78;;;19.34;35.88
13011;BME280;6786;57.632;11.962;2023-04-20T06:00:20;102579.47;;;19.35;35.86
13011;BME280;6786;57.632;11.962;2023-04-20T06:02:52;102581.16;;;19.36;35.83
13011;BME280;6786;57.632;11.962;2023-04-20T06:05:21;102575.81;;;19.36;35.89
13011;BME280;6786;57.632;11.962;2023-04-20T06:07:50;102579.47;;;19.35;35.87
13011;BME280;6786;57.632;11.962;2023-04-20T06:10:19;102562.03;;;19.28;35.87
13011;BME280;6786;57.632;11.962;2023-04-20T06:12:48;102578.50;;;19.36;35.86
13011;BME280;6786;57.632;11.962;2023-04-20T06:15:18;102575.81;;;19.36;35.86
13011;BME280;6786;57.632;11.962;2023-04-20T06:17:47;102583.75;;;19.37;35.94
13011;BME280;6786;57.632;11.962;2023-04-20T06:20:16;102578.41;;;19.37;36.00
13011;BME280;6786;57.632;11.962;2023-04-20T06:22:45;102579.28;;;19.38;35.93
13011;BME280;6786;57.632;11.962;2023-04-20T06:25:13;102586.34;;;19.39;35.88
13011;BME280;6786;57.632;11.962;2023-04-20T06:27:42;102586.34;;;19.39;35.90
13011;BME280;6786;57.632;11.962;2023-04-20T06:30:11;102586.34;;;19.39;35.84
13011;BME280;6786;57.632;11.962;2023-04-20T06:32:42;102586.34;;;19.39;35.94
13011;BME280;6786;57.632;11.962;2023-04-20T06:35:11;102590.88;;;19.38;35.87
13011;BME280;6786;57.632;11.962;2023-04-20T06:37:39;102586.34;;;19.39;35.89
13011;BME280;6786;57.632;11.962;2023-04-20T06:40:08;102579.28;;;19.38;35.98
13011;BME280;6786;57.632;11.962;2023-04-20T06:42:39;102590.88;;;19.38;35.96
13011;BME280;6786;57.632;11.962;2023-04-20T06:45:09;102587.41;;;19.36;35.82
13011;BME280;6786;57.632;11.962;2023-04-20T06:47:37;102582.13;;;19.35;35.86
13011;BME280;6786;57.632;11.962;2023-04-20T06:50:08;102576.97;;;19.32;35.95
13011;BME280;6786;57.632;11.962;2023-04-20T06:52:38;102571.69;;;19.30;35.87
13011;BME280;6786;57.632;11.962;2023-04-20T06:55:07;102569.44;;;19.23;35.86
13011;BME280;6786;57.632;11.962;2023-04-20T06:57:36;102570.06;;;19.28;35.81
13011;BME280;6786;57.632;11.962;2023-04-20T07:00:07;102572.84;;;19.26;35.94
13011;BME280;6786;57.632;11.962;2023-04-20T07:02:43;102553.91;;;19.14;35.89
13011;BME280;6786;57.632;11.962;2023-04-20T07:05:13;102577.38;;;19.24;35.82
13011;BME280;6786;57.632;11.962;2023-04-20T07:07:42;102564.25;;;19.20;35.81
13011;BME280;6786;57.632;11.962;2023-04-20T07:10:12;102571.31;;;19.21;35.78
13011;BME280;6786;57.632;11.962;2023-04-20T07:12:41;102568.66;;;19.21;35.88
13011;BME280;6786;57.632;11.962;2023-04-20T07:15:11;102566.75;;;19.23;35.84
13011;BME280;6786;57.632;11.962;2023-04-20T07:17:40;102574.59;;;19.26;35.86
13011;BME280;6786;57.632;11.962;2023-04-20T07:20:09;102566.56;;;19.26;35.79
13011;BME280;6786;57.632;11.962;2023-04-20T07:22:39;102562.88;;;19.28;35.85
13011;BME280;6786;57.632;11.962;2023-04-20T07:25:08;102560.09;;;19.30;36.03
13011;BME280;6786;57.632;11.962;2023-04-20T07:27:38;102554.72;;;19.30;35.91
13011;BME280;6786;57.632;11.962;2023-04-20T07:30:08;102558.19;;;19.32;35.89
13011;BME280;6786;57.632;11.962;2023-04-20T07:32:39;102552.81;;;19.32;35.86
13011;BME280;6786;57.632;11.962;2023-04-20T07:35:08;102552.81;;;19.32;35.98
13011;BME280;6786;57.632;11.962;2023-04-20T07:37:39;102554.72;;;19.30;36.00
13011;BME280;6786;57.632;11.962;2023-04-20T07:40:08;102540.72;;;19.25;35.95
13011;BME280;6786;57.632;11.962;2023-04-20T07:42:37;102545.75;;;19.31;36.07
13011;BME280;6786;57.632;11.962;2023-04-20T07:45:06;102548.34;;;19.32;35.92
13011;BME280;6786;57.632;11.962;2023-04-20T07:47:35;102544.00;;;19.30;35.92
13011;BME280;6786;57.632;11.962;2023-04-20T07:50:06;102539.16;;;19.21;35.85
13011;BME280;6786;57.632;11.962;2023-04-20T07:52:34;102542.44;;;19.26;35.93
13011;BME280;6786;57.632;11.962;2023-04-20T07:55:05;102547.81;;;19.26;35.87
13011;BME280;6786;57.632;11.962;2023-04-20T07:57:34;102553.16;;;19.26;35.78
13011;BME280;6786;57.632;11.962;2023-04-20T08:00:03;102556.81;;;19.25;35.86
13011;BME280;6786;57.632;11.962;2023-04-20T08:02:32;102544.34;;;19.24;35.91
13011;BME280;6786;57.632;11.962;2023-04-20T08:05:01;102553.34;;;19.23;35.86
13011;BME280;6786;57.632;11.962;2023-04-20T08:07:30;102556.03;;;19.23;35.87
13011;BME280;6786;57.632;11.962;2023-04-20T08:09:59;102557.00;;;19.22;35.80
13011;BME280;6786;57.632;11.962;2023-04-20T08:12:30;102555.25;;;19.21;35.87
13011;BME280;6786;57.632;11.962;2023-04-20T08:14:58;102555.25;;;19.21;35.73
13011;BME280;6786;57.632;11.962;2023-04-20T08:17:30;102553.72;;;19.17;35.74
13011;BME280;6786;57.632;11.962;2023-04-20T08:19:59;102558.88;;;19.20;35.71
13011;BME280;6786;57.632;11.962;2023-04-20T08:22:31;102555.59;;;19.15;35.83
13011;BME280;6786;57.632;11.962;2023-04-20T08:25:00;102551.81;;;19.19;35.68
13011;BME280;6786;57.632;11.962;2023-04-20T08:27:30;102551.81;;;19.19;35.69
13011;BME280;6786;57.632;11.962;2023-04-20T08:29:58;102546.63;;;19.16;35.65
13011;BME280;6786;57.632;11.962;2023-04-20T08:32:27;102556.31;;;19.18;35.75
13011;BME280;6786;57.632;11.962;2023-04-20T08:34:56;102543.00;;;19.17;35.60
13011;BME280;6786;57.632;11.962;2023-04-20T08:37:25;102543.88;;;19.17;35.73
13011;BME280;6786;57.632;11.962;2023-04-20T08:39:56;102532.28;;;19.17;35.75
13011;BME280;6786;57.632;11.962;2023-04-20T08:42:25;102540.31;;;19.17;35.63
13011;BME280;6786;57.632;11.962;2023-04-20T08:44:56;102540.31;;;19.17;35.62
13011;BME280;6786;57.632;11.962;2023-04-20T08:47:24;102549.22;;;19.17;35.69
13011;BME280;6786;57.632;11.962;2023-04-20T08:49:56;102541.28;;;19.16;35.61
13011;BME280;6786;57.632;11.962;2023-04-20T08:52:25;102543.00;;;19.17;35.70
13011;BME280;6786;57.632;11.962;2023-04-20T08:54:54;102541.28;;;19.16;35.70
13011;BME280;6786;57.632;11.962;2023-04-20T08:57:23;102535.91;;;19.16;35.70
13011;BME280;6786;57.632;11.962;2023-04-20T08:59:52;102526.13;;;19.15;35.63
13011;BME280;6786;57.632;11.962;2023-04-20T09:02:22;102534.16;;;19.15;35.49
13011;BME280;6786;57.632;11.962;2023-04-20T09:05:00;102529.69;;;19.15;35.35
13011;BME280;6786;57.632;11.962;2023-04-20T09:07:30;102527.97;;;19.14;35.57
13011;BME280;6786;57.632;11.962;2023-04-20T09:09:59;102525.19;;;19.16;35.52
13011;BME280;6786;57.632;11.962;2023-04-20T09:12:39;102523.44;;;19.15;35.35
13011;BME280;6786;57.632;11.962;2023-04-20T09:15:09;102509.28;;;19.13;35.52
13011;BME280;6786;57.632;11.962;2023-04-20T09:17:39;102516.97;;;19.19;35.57
13011;BME280;6786;57.632;11.962;2023-04-20T09:20:08;102503.38;;;19.22;35.69
13011;BME280;6786;57.632;11.962;2023-04-20T09:22:38;102507.38;;;19.15;35.53
13011;BME280;6786;57.632;11.962;2023-04-20T09:25:13;102516.00;;;19.20;35.24
13011;BME280;6786;57.632;11.962;2023-04-20T09:27:42;102513.41;;;19.18;35.56
13011;BME280;6786;57.632;11.962;2023-04-20T09:30:11;102506.34;;;19.17;35.62
13011;BME280;6786;57.632;11.962;2023-04-20T09:32:42;102510.81;;;19.17;35.44
13011;BME280;6786;57.632;11.962;2023-04-20T09:35:11;102509.84;;;19.18;35.44
13011;BME280;6786;57.632;11.962;2023-04-20T09:37:46;102506.34;;;19.17;35.45
13011;BME280;6786;57.632;11.962;2023-04-20T09:40:16;102507.19;;;19.18;35.44
13011;BME280;6786;57.632;11.962;2023-04-20T09:42:47;102511.00;;;19.14;35.40
13011;BME280;6786;57.632;11.962;2023-04-20T09:45:17;102509.09;;;19.16;35.39
13011;BME280;6786;57.632;11.962;2023-04-20T09:47:48;102505.66;;;19.14;35.57
13011;BME280;6786;57.632;11.962;2023-04-20T09:50:17;102487.16;;;19.09;35.46
13011;BME280;6786;57.632;11.962;2023-04-20T09:52:59;102505.56;;;19.15;35.56
13011;BME280;6786;57.632;11.962;2023-04-20T09:55:29;102512.72;;;19.15;35.57
13011;BME280;6786;57.632;11.962;2023-04-20T09:58:01;102500.47;;;19.11;35.46
13011;BME280;6786;57.632;11.962;2023-04-20T10:00:29;102494.94;;;19.14;35.38
13011;BME280;6786;57.632;11.962;2023-04-20T10:02:59;102486.31;;;19.09;35.45
13011;BME280;6786;57.632;11.962;2023-04-20T10:05:32;102491.28;;;19.15;35.42
13011;BME280;6786;57.632;11.962;2023-04-20T10:08:02;102491.28;;;19.15;35.47
13011;BME280;6786;57.632;11.962;2023-04-20T10:10:42;102489.56;;;19.14;35.24
13011;BME280;6786;57.632;11.962;2023-04-20T10:13:11;102480.97;;;19.09;35.46
13011;BME280;6786;57.632;11.962;2023-04-20T10:15:40;102501.06;;;19.16;35.44
13011;BME280;6786;57.632;11.962;2023-04-20T10:18:30;102491.28;;;19.15;35.11
13011;BME280;6786;57.632;11.962;2023-04-20T10:21:08;102487.66;;;19.16;35.34
13011;BME280;6786;57.632;11.962;2023-04-20T10:23:46;102496.63;;;19.15;35.37
13011;BME280;6786;57.632;11.962;2023-04-20T10:26:15;102480.56;;;19.15;35.55
13011;BME280;6786;57.632;11.962;2023-04-20T10:28:44;102477.69;;;19.18;35.29
13011;BME280;6786;57.632;11.962;2023-04-20T10:31:14;102478.66;;;19.17;35.52
13011;BME280;6786;57.632;11.962;2023-04-20T10:33:54;102478.84;;;19.14;35.56
13011;BME280;6786;57.632;11.962;2023-04-20T10:36:25;102475.41;;;19.12;35.68
13011;BME280;6786;57.632;11.962;2023-04-20T10:38:54;102473.66;;;19.11;35.73
13011;BME280;6786;57.632;11.962;2023-04-20T10:41:22;102464.88;;;19.09;35.73
13011;BME280;6786;57.632;11.962;2023-04-20T10:43:50;102472.03;;;19.08;35.76
13011;BME280;6786;57.632;11.962;2023-04-20T10:46:20;102469.38;;;19.08;35.71
13011;BME280;6786;57.632;11.962;2023-04-20T10:48:54;102473.84;;;19.08;35.87
13011;BME280;6786;57.632;11.962;2023-04-20T10:51:22;102466.78;;;19.07;35.87
13011;BME280;6786;57.632;11.962;2023-04-20T10:53:59;102461.41;;;19.07;36.06
13011;BME280;6786;57.632;11.962;2023-04-20T10:56:35;102466.78;;;19.07;36.03
13011;BME280;6786;57.632;11.962;2023-04-20T10:59:07;102468.59;;;19.06;36.04
13011;BME280;6786;57.632;11.962;2023-04-20T11:01:35;102461.41;;;19.07;35.95
13011;BME280;6786;57.632;11.962;2023-04-20T11:04:05;102462.38;;;19.06;35.99
13011;BME280;6786;57.632;11.962;2023-04-20T11:06:33;102454.34;;;19.06;35.95
13011;BME280;6786;57.632;11.962;2023-04-20T11:09:02;102460.53;;;19.06;36.05
13011;BME280;6786;57.632;11.962;2023-04-20T11:11:30;102448.97;;;19.06;36.16
13011;BME280;6786;57.632;11.962;2023-04-20T11:14:05;102449.81;;;19.06;36.05
13011;BME280;6786;57.632;11.962;2023-04-20T11:16:34;102441.88;;;19.05;36.11
13011;BME280;6786;57.632;11.962;2023-04-20T11:19:23;102443.44;;;19.09;35.97
13011;BME280;6786;57.632;11.962;2023-04-20T11:21:52;102436.34;;;19.08;36.00
13011;BME280;6786;57.632;11.962;2023-04-20T11:24:23;102432.72;;;19.09;36.12
13011;BME280;6786;57.632;11.962;2023-04-20T11:26:52;102433.56;;;19.09;36.19
13011;BME280;6786;57.632;11.962;2023-04-20T11:29:29;102429.06;;;19.10;36.11
13011;BME280;6786;57.632;11.962;2023-04-20T11:32:00;102430.78;;;19.11;36.03
13011;BME280;6786;57.632;11.962;2023-04-20T11:34:32;102413.00;;;19.10;35.96
13011;BME280;6786;57.632;11.962;2023-04-20T11:37:03;102415.66;;;19.10;35.99
13011;BME280;6786;57.632;11.962;2023-04-20T11:39:31;102414.88;;;19.08;35.99
13011;BME280;6786;57.632;11.962;2023-04-20T11:41:59;102412.03;;;19.11;36.05
13011;BME280;6786;57.632;11.962;2023-04-20T11:44:27;102403.97;;;19.11;35.97
13011;BME280;6786;57.632;11.962;2023-04-20T11:46:56;102423.72;;;19.10;35.98
13011;BME280;6786;57.632;11.962;2023-04-20T11:49:25;102409.72;;;19.05;36.05
13011;BME280;6786;57.632;11.962;2023-04-20T11:51:55;102420.06;;;19.11;36.11
13011;BME280;6786;57.632;11.962;2023-04-20T11:54:23;102416.44;;;19.12;36.01
13011;BME280;6786;57.632;11.962;2023-04-20T11:56:52;102411.09;;;19.12;36.15
13011;BME280;6786;57.632;11.962;2023-04-20T11:59:21;102416.44;;;19.12;36.14
13011;BME280;6786;57.632;11.962;2023-04-20T12:01:49;102418.16;;;19.13;36.14
13011;BME280;6786;57.632;11.962;2023-04-20T12:04:17;102419.88;;;19.14;36.14
13011;BME280;6786;57.632;11.962;2023-04-20T12:06:46;102409.16;;;19.14;36.14
13011;BME280;6786;57.632;11.962;2023-04-20T12:09:16;102409.16;;;19.14;36.00
13011;BME280;6786;57.632;11.962;2023-04-20T12:11:44;102404.84;;;19.11;35.87
13011;BME280;6786;57.632;11.962;2023-04-20T12:14:12;102404.75;;;19.13;36.10
13011;BME280;6786;57.632;11.962;2023-04-20T12:16:40;102387.72;;;19.14;36.12
13011;BME280;6786;57.632;11.962;2023-04-20T12:19:08;102393.06;;;19.14;35.97
13011;BME280;6786;57.632;11.962;2023-04-20T12:21:37;102387.91;;;19.11;36.00
13011;BME280;6786;57.632;11.962;2023-04-20T12:24:05;102396.53;;;19.16;35.94
13011;BME280;6786;57.632;11.962;2023-04-20T12:26:34;102387.53;;;19.17;35.96
13011;BME280;6786;57.632;11.962;2023-04-20T12:29:04;102376.03;;;19.15;35.94
13011;BME280;6786;57.632;11.962;2023-04-20T12:31:33;102375.09;;;19.16;35.94
13011;BME280;6786;57.632;11.962;2023-04-20T12:34:02;102354.59;;;19.01;35.88
13011;BME280;6786;57.632;11.962;2023-04-20T12:36:30;102393.06;;;19.14;35.80
13011;BME280;6786;57.632;11.962;2023-04-20T12:39:00;102378.06;;;19.11;35.78
13011;BME280;6786;57.632;11.962;2023-04-20T12:41:29;102370.09;;;19.10;35.59
13011;BME280;6786;57.632;11.962;2023-04-20T12:44:00;102377.19;;;19.11;35.97
13011;BME280;6786;57.632;11.962;2023-04-20T12:46:41;102368.41;;;19.09;36.00
13011;BME280;6786;57.632;11.962;2023-04-20T12:49:09;102378.94;;;19.12;35.92
13011;BME280;6786;57.632;11.962;2023-04-20T12:51:37;102364.47;;;19.14;36.05
13011;BME280;6786;57.632;11.962;2023-04-20T12:54:06;102364.56;;;19.13;35.99
13011;BME280;6786;57.632;11.962;2023-04-20T12:56:35;102360.03;;;19.13;36.00
13011;BME280;6786;57.632;11.962;2023-04-20T12:59:04;102362.63;;;19.15;35.91
13011;BME280;6786;57.632;11.962;2023-04-20T13:01:32;102359.19;;;19.13;36.00
13011;BME280;6786;57.632;11.962;2023-04-20T13:04:00;102358.22;;;19.14;35.90